sensor_id;sensor_type;location;lat;lon;timestamp;pressure;altitude;pressure_sealevel;temperature;humidity
49529;BME280;35423;37.320;-121.762;2023-04-06T00:01:12;100467.44;;;35.75;8.73
49529;BME280;35423;37.320;-121.762;2023-04-06T00:03:38;100466.16;;;35.60;8.85
49529;BME280;35423;37.320;-121.762;2023-04-06T00:06:05;100464.17;;;35.13;8.99
49529;BME280;35423;37.320;-121.762;2023-04-06T00:08:33;100463.24;;;35.02;9.11
49529;BME280;35423;37.320;-121.762;2023-04-06T00:10:58;100461.63;;;34.74;9.32
49529;BME280;35423;37.320;-121.762;2023-04-06T00:13:23;100460.95;;;34.60;9.41
49529;BME280;35423;37.320;-121.762;2023-04-06T00:15:51;100456.04;;;34.37;9.49
49529;BME280;35423;37.320;-121.762;2023-04-06T00:18:15;100456.65;;;34.06;9.69
49529;BME280;35423;37.320;-121.762;2023-04-06T00:20:42;100455.95;;;34.36;9.78
49529;BME280;35423;37.320;-121.762;2023-04-06T00:23:09;100455.75;;;33.85;9.92
49529;BME280;35423;37.320;-121.762;2023-04-06T00:25:37;100455.18;;;33.85;9.87
49529;BME280;35423;37.320;-121.762;2023-04-06T00:28:10;100454.19;;;33.30;10.04
49529;BME280;35423;37.320;-121.762;2023-04-06T00:30:45;100456.14;;;33.28;10.21
49529;BME280;35423;37.320;-121.762;2023-04-06T00:33:14;100460.87;;;33.00;10.31
49529;BME280;35423;37.320;-121.762;2023-04-06T00:35:40;100462.33;;;32.82;10.46
49529;BME280;35423;37.320;-121.762;2023-04-06T00:38:06;100458.61;;;32.87;10.58
49529;BME280;35423;37.320;-121.762;2023-04-06T00:40:31;100459.58;;;33.03;10.73
49529;BME280;35423;37.320;-121.762;2023-04-06T00:42:58;100460.29;;;32.59;10.71
49529;BME280;35423;37.320;-121.762;2023-04-06T00:45:23;100459.20;;;32.58;10.84
49529;BME280;35423;37.320;-121.762;2023-04-06T00:47:57;100460.45;;;32.14;10.87
49529;BME280;35423;37.320;-121.762;2023-04-06T00:50:21;100460.23;;;31.84;10.93
49529;BME280;35423;37.320;-121.762;2023-04-06T00:52:47;100463.72;;;31.82;10.96
49529;BME280;35423;37.320;-121.762;2023-04-06T00:55:19;100463.21;;;31.55;11.06
49529;BME280;35423;37.320;-121.762;2023-04-06T00:57:49;100460.28;;;31.20;11.21
49529;BME280;35423;37.320;-121.762;2023-04-06T01:00:17;100460.04;;;30.87;11.27
49529;BME280;35423;37.320;-121.762;2023-04-06T01:02:41;100461.68;;;30.95;11.55
49529;BME280;35423;37.320;-121.762;2023-04-06T01:05:07;100458.88;;;30.67;11.72
49529;BME280;35423;37.320;-121.762;2023-04-06T01:07:34;100458.22;;;30.50;11.90
49529;BME280;35423;37.320;-121.762;2023-04-06T01:10:08;100460.50;;;30.44;12.02
49529;BME280;35423;37.320;-121.762;2023-04-06T01:12:37;100454.06;;;30.60;12.19
49529;BME280;35423;37.320;-121.762;2023-04-06T01:15:02;100456.24;;;30.20;12.34
49529;BME280;35423;37.320;-121.762;2023-04-06T01:17:28;100458.91;;;30.40;12.40
49529;BME280;35423;37.320;-121.762;2023-04-06T01:19:55;100460.42;;;30.27;12.43
49529;BME280;35423;37.320;-121.762;2023-04-06T01:22:25;100460.12;;;29.88;12.50
49529;BME280;35423;37.320;-121.762;2023-04-06T01:24:52;100457.56;;;29.70;12.47
49529;BME280;35423;37.320;-121.762;2023-04-06T01:27:19;100459.69;;;29.54;12.65
49529;BME280;35423;37.320;-121.762;2023-04-06T01:29:44;100459.07;;;29.72;12.68
49529;BME280;35423;37.320;-121.762;2023-04-06T01:32:10;100455.45;;;29.36;12.82
49529;BME280;35423;37.320;-121.762;2023-04-06T01:34:35;100459.08;;;29.30;12.99
49529;BME280;35423;37.320;-121.762;2023-04-06T01:37:14;100461.44;;;29.03;13.23
49529;BME280;35423;37.320;-121.762;2023-04-06T01:39:40;100463.90;;;29.03;13.40
49529;BME280;35423;37.320;-121.762;2023-04-06T01:42:09;100469.66;;;28.93;13.51
49529;BME280;35423;37.320;-121.762;2023-04-06T01:44:33;100468.58;;;28.60;13.55
49529;BME280;35423;37.320;-121.762;2023-04-06T01:46:59;100468.98;;;28.47;13.61
49529;BME280;35423;37.320;-121.762;2023-04-06T01:49:27;100465.56;;;28.27;13.70
49529;BME280;35423;37.320;-121.762;2023-04-06T01:51:53;100466.88;;;28.69;13.95
49529;BME280;35423;37.320;-121.762;2023-04-06T01:54:19;100477.95;;;28.27;13.84
49529;BME280;35423;37.320;-121.762;2023-04-06T01:56:45;100479.75;;;28.36;13.87
49529;BME280;35423;37.320;-121.762;2023-04-06T01:59:14;100481.46;;;27.93;13.96
49529;BME280;35423;37.320;-121.762;2023-04-06T02:01:41;100479.95;;;28.03;14.00
49529;BME280;35423;37.320;-121.762;2023-04-06T02:04:06;100474.38;;;28.08;14.02
49529;BME280;35423;37.320;-121.762;2023-04-06T02:06:32;100470.97;;;27.69;14.17
49529;BME280;35423;37.320;-121.762;2023-04-06T02:09:06;100472.16;;;27.56;14.25
49529;BME280;35423;37.320;-121.762;2023-04-06T02:11:34;100470.71;;;27.66;14.20
49529;BME280;35423;37.320;-121.762;2023-04-06T02:14:02;100469.38;;;27.25;14.31
49529;BME280;35423;37.320;-121.762;2023-04-06T02:16:27;100474.61;;;27.59;14.37
49529;BME280;35423;37.320;-121.762;2023-04-06T02:18:56;100470.77;;;26.94;14.45
49529;BME280;35423;37.320;-121.762;2023-04-06T02:21:23;100471.22;;;27.03;14.51
49529;BME280;35423;37.320;-121.762;2023-04-06T02:23:46;100472.13;;;26.87;14.58
49529;BME280;35423;37.320;-121.762;2023-04-06T02:26:12;100474.50;;;26.94;14.69
49529;BME280;35423;37.320;-121.762;2023-04-06T02:28:38;100472.81;;;26.78;14.76
49529;BME280;35423;37.320;-121.762;2023-04-06T02:31:04;100473.84;;;26.31;14.79
49529;BME280;35423;37.320;-121.762;2023-04-06T02:33:29;100470.32;;;26.41;14.86
49529;BME280;35423;37.320;-121.762;2023-04-06T02:36:03;100466.35;;;26.18;15.02
49529;BME280;35423;37.320;-121.762;2023-04-06T02:38:31;100466.65;;;25.93;15.21
49529;BME280;35423;37.320;-121.762;2023-04-06T02:40:59;100473.76;;;26.24;15.26
49529;BME280;35423;37.320;-121.762;2023-04-06T02:43:25;100475.35;;;25.95;15.27
49529;BME280;35423;37.320;-121.762;2023-04-06T02:45:50;100478.99;;;25.60;15.28
49529;BME280;35423;37.320;-121.762;2023-04-06T02:48:33;100480.05;;;25.75;15.40
49529;BME280;35423;37.320;-121.762;2023-04-06T02:51:01;100480.64;;;25.65;15.40
49529;BME280;35423;37.320;-121.762;2023-04-06T02:53:37;100479.71;;;25.76;15.62
49529;BME280;35423;37.320;-121.762;2023-04-06T02:56:02;100482.79;;;25.71;15.61
49529;BME280;35423;37.320;-121.762;2023-04-06T02:58:28;100488.49;;;25.58;15.76
49529;BME280;35423;37.320;-121.762;2023-04-06T03:00:54;100490.04;;;25.41;15.94
49529;BME280;35423;37.320;-121.762;2023-04-06T03:03:21;100492.36;;;25.58;16.03
49529;BME280;35423;37.320;-121.762;2023-04-06T03:05:48;100493.05;;;25.44;15.96
49529;BME280;35423;37.320;-121.762;2023-04-06T03:08:16;100495.02;;;25.07;15.93
49529;BME280;35423;37.320;-121.762;2023-04-06T03:10:42;100495.28;;;25.15;16.02
49529;BME280;35423;37.320;-121.762;2023-04-06T03:13:09;100494.84;;;25.00;16.15
49529;BME280;35423;37.320;-121.762;2023-04-06T03:15:36;100494.75;;;24.91;16.29
49529;BME280;35423;37.320;-121.762;2023-04-06T03:18:01;100495.50;;;24.78;16.45
49529;BME280;35423;37.320;-121.762;2023-04-06T03:20:27;100501.57;;;24.59;16.64
49529;BME280;35423;37.320;-121.762;2023-04-06T03:22:54;100503.96;;;24.68;16.80
49529;BME280;35423;37.320;-121.762;2023-04-06T03:25:20;100505.69;;;24.53;16.82
49529;BME280;35423;37.320;-121.762;2023-04-06T03:27:48;100508.81;;;24.40;16.93
49529;BME280;35423;37.320;-121.762;2023-04-06T03:30:22;100510.88;;;24.30;16.97
49529;BME280;35423;37.320;-121.762;2023-04-06T03:32:50;100512.75;;;24.01;17.00
49529;BME280;35423;37.320;-121.762;2023-04-06T03:35:17;100516.89;;;24.14;17.09
49529;BME280;35423;37.320;-121.762;2023-04-06T03:37:42;100522.82;;;24.08;17.17
49529;BME280;35423;37.320;-121.762;2023-04-06T03:40:09;100524.66;;;23.98;17.16
49529;BME280;35423;37.320;-121.762;2023-04-06T03:42:36;100523.35;;;23.82;17.30
49529;BME280;35423;37.320;-121.762;2023-04-06T03:45:02;100525.01;;;23.73;17.34
49529;BME280;35423;37.320;-121.762;2023-04-06T03:47:27;100526.26;;;23.58;17.39
49529;BME280;35423;37.320;-121.762;2023-04-06T03:49:56;100523.94;;;23.43;17.45
49529;BME280;35423;37.320;-121.762;2023-04-06T03:52:23;100521.38;;;23.29;17.58
49529;BME280;35423;37.320;-121.762;2023-04-06T03:54:49;100523.31;;;23.39;17.72
49529;BME280;35423;37.320;-121.762;2023-04-06T03:57:18;100527.14;;;23.30;17.82
49529;BME280;35423;37.320;-121.762;2023-04-06T03:59:45;100529.26;;;23.20;17.89
49529;BME280;35423;37.320;-121.762;2023-04-06T04:02:10;100532.19;;;22.83;18.04
49529;BME280;35423;37.320;-121.762;2023-04-06T04:04:36;100533.01;;;23.21;18.17
49529;BME280;35423;37.320;-121.762;2023-04-06T04:07:01;100536.78;;;23.11;18.30
49529;BME280;35423;37.320;-121.762;2023-04-06T04:09:29;100543.94;;;23.03;18.43
49529;BME280;35423;37.320;-121.762;2023-04-06T04:11:56;100544.07;;;22.89;18.58
49529;BME280;35423;37.320;-121.762;2023-04-06T04:14:22;100546.93;;;22.77;18.67
49529;BME280;35423;37.320;-121.762;2023-04-06T04:16:51;100545.81;;;22.69;18.78
49529;BME280;35423;37.320;-121.762;2023-04-06T04:19:18;100550.02;;;22.64;18.88
49529;BME280;35423;37.320;-121.762;2023-04-06T04:21:46;100555.71;;;22.47;19.15
49529;BME280;35423;37.320;-121.762;2023-04-06T04:24:16;100557.36;;;22.29;19.31
49529;BME280;35423;37.320;-121.762;2023-04-06T04:26:41;100553.14;;;22.33;19.45
49529;BME280;35423;37.320;-121.762;2023-04-06T04:29:08;100550.54;;;22.20;19.67
49529;BME280;35423;37.320;-121.762;2023-04-06T04:31:36;100553.51;;;22.37;19.83
49529;BME280;35423;37.320;-121.762;2023-04-06T04:34:04;100553.95;;;22.31;19.94
49529;BME280;35423;37.320;-121.762;2023-04-06T04:36:32;100554.74;;;22.22;20.09
49529;BME280;35423;37.320;-121.762;2023-04-06T04:38:56;100555.83;;;21.87;20.17
49529;BME280;35423;37.320;-121.762;2023-04-06T04:41:27;100559.27;;;21.82;20.35
49529;BME280;35423;37.320;-121.762;2023-04-06T04:43:53;100561.01;;;22.03;20.50
49529;BME280;35423;37.320;-121.762;2023-04-06T04:46:20;100559.56;;;21.94;20.73
49529;BME280;35423;37.320;-121.762;2023-04-06T04:48:45;100558.58;;;21.89;20.77
49529;BME280;35423;37.320;-121.762;2023-04-06T04:51:12;100558.00;;;21.85;20.86
49529;BME280;35423;37.320;-121.762;2023-04-06T04:53:36;100559.99;;;21.78;20.97
49529;BME280;35423;37.320;-121.762;2023-04-06T04:56:02;100564.19;;;21.69;21.08
49529;BME280;35423;37.320;-121.762;2023-04-06T04:58:28;100570.19;;;21.60;21.12
49529;BME280;35423;37.320;-121.762;2023-04-06T05:01:00;100572.75;;;21.48;21.32
49529;BME280;35423;37.320;-121.762;2023-04-06T05:03:28;100578.14;;;21.40;21.37
49529;BME280;35423;37.320;-121.762;2023-04-06T05:05:57;100582.00;;;21.53;21.50
49529;BME280;35423;37.320;-121.762;2023-04-06T05:08:25;100586.56;;;21.22;21.57
49529;BME280;35423;37.320;-121.762;2023-04-06T05:10:53;100586.85;;;21.40;21.60
49529;BME280;35423;37.320;-121.762;2023-04-06T05:13:20;100584.98;;;21.04;21.72
49529;BME280;35423;37.320;-121.762;2023-04-06T05:15:47;100586.33;;;21.15;21.79
49529;BME280;35423;37.320;-121.762;2023-04-06T05:18:12;100592.12;;;21.29;21.83
49529;BME280;35423;37.320;-121.762;2023-04-06T05:20:47;100592.86;;;20.96;21.99
49529;BME280;35423;37.320;-121.762;2023-04-06T05:23:22;100591.47;;;20.88;22.11
49529;BME280;35423;37.320;-121.762;2023-04-06T05:25:40;100588.52;;;20.76;22.15
49529;BME280;35423;37.320;-121.762;2023-04-06T05:28:06;100593.48;;;20.88;22.28
49529;BME280;35423;37.320;-121.762;2023-04-06T05:30:35;100597.78;;;20.82;22.35
49529;BME280;35423;37.320;-121.762;2023-04-06T05:33:03;100598.08;;;20.73;22.38
49529;BME280;35423;37.320;-121.762;2023-04-06T05:35:29;100597.39;;;20.42;22.50
49529;BME280;35423;37.320;-121.762;2023-04-06T05:37:55;100599.57;;;20.57;22.58
49529;BME280;35423;37.320;-121.762;2023-04-06T05:40:20;100601.76;;;20.50;22.64
49529;BME280;35423;37.320;-121.762;2023-04-06T05:42:51;100600.12;;;20.73;22.65
49529;BME280;35423;37.320;-121.762;2023-04-06T05:45:18;100601.46;;;20.38;22.74
49529;BME280;35423;37.320;-121.762;2023-04-06T05:47:46;100602.24;;;20.31;22.77
49529;BME280;35423;37.320;-121.762;2023-04-06T05:50:14;100600.30;;;20.30;22.79
49529;BME280;35423;37.320;-121.762;2023-04-06T05:52:40;100600.59;;;20.21;22.86
49529;BME280;35423;37.320;-121.762;2023-04-06T05:55:07;100596.67;;;20.13;22.95
49529;BME280;35423;37.320;-121.762;2023-04-06T05:57:32;100593.88;;;20.03;22.99
49529;BME280;35423;37.320;-121.762;2023-04-06T05:59:58;100587.59;;;19.95;23.01
49529;BME280;35423;37.320;-121.762;2023-04-06T06:02:23;100588.46;;;20.15;23.08
49529;BME280;35423;37.320;-121.762;2023-04-06T06:04:50;100587.62;;;20.05;23.17
49529;BME280;35423;37.320;-121.762;2023-04-06T06:07:17;100583.77;;;20.17;23.33
49529;BME280;35423;37.320;-121.762;2023-04-06T06:09:49;100584.53;;;20.10;23.37
49529;BME280;35423;37.320;-121.762;2023-04-06T06:12:16;100583.25;;;20.03;23.45
49529;BME280;35423;37.320;-121.762;2023-04-06T06:14:43;100585.80;;;19.95;23.50
49529;BME280;35423;37.320;-121.762;2023-04-06T06:17:11;100582.36;;;19.89;23.57
49529;BME280;35423;37.320;-121.762;2023-04-06T06:19:37;100580.71;;;19.83;23.60
49529;BME280;35423;37.320;-121.762;2023-04-06T06:22:03;100586.41;;;19.71;23.71
49529;BME280;35423;37.320;-121.762;2023-04-06T06:24:31;100583.62;;;19.66;23.77
49529;BME280;35423;37.320;-121.762;2023-04-06T06:26:56;100582.72;;;19.58;23.82
49529;BME280;35423;37.320;-121.762;2023-04-06T06:29:33;100583.13;;;19.81;23.84
49529;BME280;35423;37.320;-121.762;2023-04-06T06:32:00;100584.67;;;19.48;23.92
49529;BME280;35423;37.320;-121.762;2023-04-06T06:34:34;100585.80;;;19.41;23.95
49529;BME280;35423;37.320;-121.762;2023-04-06T06:36:55;100588.78;;;19.51;24.12
49529;BME280;35423;37.320;-121.762;2023-04-06T06:39:25;100586.97;;;19.16;24.19
49529;BME280;35423;37.320;-121.762;2023-04-06T06:41:53;100592.27;;;19.07;24.30
49529;BME280;35423;37.320;-121.762;2023-04-06T06:44:20;100592.91;;;19.24;24.32
49529;BME280;35423;37.320;-121.762;2023-04-06T06:46:45;100597.43;;;18.91;24.33
49529;BME280;35423;37.320;-121.762;2023-04-06T06:49:12;100599.66;;;18.86;24.32
49529;BME280;35423;37.320;-121.762;2023-04-06T06:51:41;100601.88;;;19.28;24.34
49529;BME280;35423;37.320;-121.762;2023-04-06T06:54:06;100601.62;;;19.01;24.31
49529;BME280;35423;37.320;-121.762;2023-04-06T06:56:37;100602.22;;;19.15;24.35
49529;BME280;35423;37.320;-121.762;2023-04-06T06:59:03;100599.52;;;18.82;24.41
49529;BME280;35423;37.320;-121.762;2023-04-06T07:01:30;100601.00;;;18.49;24.40
49529;BME280;35423;37.320;-121.762;2023-04-06T07:04:02;100603.76;;;18.95;24.34
49529;BME280;35423;37.320;-121.762;2023-04-06T07:06:28;100602.18;;;18.63;24.37
49529;BME280;35423;37.320;-121.762;2023-04-06T07:08:56;100603.08;;;18.79;24.25
49529;BME280;35423;37.320;-121.762;2023-04-06T07:11:21;100604.58;;;18.48;24.20
49529;BME280;35423;37.320;-121.762;2023-04-06T07:13:51;100604.60;;;18.60;24.19
49529;BME280;35423;37.320;-121.762;2023-04-06T07:16:17;100602.62;;;18.44;24.06
49529;BME280;35423;37.320;-121.762;2023-04-06T07:18:44;100603.71;;;18.53;24.02
49529;BME280;35423;37.320;-121.762;2023-04-06T07:21:11;100602.94;;;18.34;23.97
49529;BME280;35423;37.320;-121.762;2023-04-06T07:23:38;100598.64;;;18.34;23.94
49529;BME280;35423;37.320;-121.762;2023-04-06T07:26:05;100598.96;;;18.33;23.94
49529;BME280;35423;37.320;-121.762;2023-04-06T07:28:33;100598.10;;;18.31;24.01
49529;BME280;35423;37.320;-121.762;2023-04-06T07:30:58;100594.66;;;18.27;24.12
49529;BME280;35423;37.320;-121.762;2023-04-06T07:33:29;100589.78;;;18.23;24.14
49529;BME280;35423;37.320;-121.762;2023-04-06T07:35:55;100587.64;;;18.18;24.12
49529;BME280;35423;37.320;-121.762;2023-04-06T07:38:20;100582.06;;;18.16;24.07
49529;BME280;35423;37.320;-121.762;2023-04-06T07:40:52;100574.45;;;18.36;23.95
49529;BME280;35423;37.320;-121.762;2023-04-06T07:43:20;100571.62;;;18.03;23.93
49529;BME280;35423;37.320;-121.762;2023-04-06T07:45:46;100568.72;;;17.99;23.90
49529;BME280;35423;37.320;-121.762;2023-04-06T07:48:14;100565.45;;;18.41;23.89
49529;BME280;35423;37.320;-121.762;2023-04-06T07:50:37;100560.94;;;17.87;23.88
49529;BME280;35423;37.320;-121.762;2023-04-06T07:53:03;100554.16;;;18.07;23.84
49529;BME280;35423;37.320;-121.762;2023-04-06T07:55:32;100549.01;;;18.22;23.83
49529;BME280;35423;37.320;-121.762;2023-04-06T07:57:59;100548.12;;;17.67;23.87
49529;BME280;35423;37.320;-121.762;2023-04-06T08:00:24;100546.05;;;18.08;23.96
49529;BME280;35423;37.320;-121.762;2023-04-06T08:02:58;100549.79;;;18.04;24.08
49529;BME280;35423;37.320;-121.762;2023-04-06T08:05:24;100551.74;;;17.99;24.16
49529;BME280;35423;37.320;-121.762;2023-04-06T08:07:53;100548.00;;;17.95;24.25
49529;BME280;35423;37.320;-121.762;2023-04-06T08:10:18;100548.55;;;17.90;24.28
49529;BME280;35423;37.320;-121.762;2023-04-06T08:12:52;100544.97;;;17.84;24.33
49529;BME280;35423;37.320;-121.762;2023-04-06T08:15:18;100543.17;;;17.78;24.40
49529;BME280;35423;37.320;-121.762;2023-04-06T08:17:45;100539.12;;;17.51;24.44
49529;BME280;35423;37.320;-121.762;2023-04-06T08:20:12;100538.89;;;17.67;24.52
49529;BME280;35423;37.320;-121.762;2023-04-06T08:22:37;100541.45;;;17.83;24.58
49529;BME280;35423;37.320;-121.762;2023-04-06T08:25:04;100542.53;;;17.55;24.66
49529;BME280;35423;37.320;-121.762;2023-04-06T08:27:31;100540.67;;;17.48;24.77
49529;BME280;35423;37.320;-121.762;2023-04-06T08:30:00;100543.35;;;17.42;24.87
49529;BME280;35423;37.320;-121.762;2023-04-06T08:32:28;100552.29;;;17.37;24.97
49529;BME280;35423;37.320;-121.762;2023-04-06T08:34:55;100558.72;;;17.36;24.98
49529;BME280;35423;37.320;-121.762;2023-04-06T08:37:21;100560.41;;;17.32;24.99
49529;BME280;35423;37.320;-121.762;2023-04-06T08:39:47;100562.42;;;17.27;25.14
49529;BME280;35423;37.320;-121.762;2023-04-06T08:42:22;100565.13;;;17.66;25.10
49529;BME280;35423;37.320;-121.762;2023-04-06T08:44:44;100560.11;;;17.07;25.17
49529;BME280;35423;37.320;-121.762;2023-04-06T08:47:10;100559.22;;;17.17;25.29
49529;BME280;35423;37.320;-121.762;2023-04-06T08:49:38;100556.67;;;16.86;25.36
49529;BME280;35423;37.320;-121.762;2023-04-06T08:52:02;100555.14;;;16.99;25.46
49529;BME280;35423;37.320;-121.762;2023-04-06T08:54:31;100555.36;;;16.94;25.50
49529;BME280;35423;37.320;-121.762;2023-04-06T08:57:05;100556.27;;;16.64;25.53
49529;BME280;35423;37.320;-121.762;2023-04-06T08:59:33;100557.13;;;16.83;25.56
49529;BME280;35423;37.320;-121.762;2023-04-06T09:02:00;100553.73;;;16.79;25.57
49529;BME280;35423;37.320;-121.762;2023-04-06T09:04:27;100548.70;;;16.75;25.47
49529;BME280;35423;37.320;-121.762;2023-04-06T09:06:53;100548.39;;;16.44;25.51
49529;BME280;35423;37.320;-121.762;2023-04-06T09:09:18;100548.49;;;16.89;25.58
49529;BME280;35423;37.320;-121.762;2023-04-06T09:11:48;100548.10;;;16.54;25.65
49529;BME280;35423;37.320;-121.762;2023-04-06T09:14:12;100546.60;;;16.78;25.70
49529;BME280;35423;37.320;-121.762;2023-04-06T09:16:41;100546.34;;;16.74;25.84
49529;BME280;35423;37.320;-121.762;2023-04-06T09:19:07;100543.92;;;16.71;25.94
49529;BME280;35423;37.320;-121.762;2023-04-06T09:21:35;100541.44;;;16.69;25.94
49529;BME280;35423;37.320;-121.762;2023-04-06T09:24:01;100539.17;;;16.61;26.05
49529;BME280;35423;37.320;-121.762;2023-04-06T09:26:29;100540.82;;;16.57;26.10
49529;BME280;35423;37.320;-121.762;2023-04-06T09:28:55;100541.52;;;16.26;26.11
49529;BME280;35423;37.320;-121.762;2023-04-06T09:31:23;100542.84;;;16.45;26.18
49529;BME280;35423;37.320;-121.762;2023-04-06T09:33:47;100541.97;;;16.41;26.20
49529;BME280;35423;37.320;-121.762;2023-04-06T09:36:14;100537.00;;;16.39;26.21
49529;BME280;35423;37.320;-121.762;2023-04-06T09:41:09;100533.01;;;16.25;26.35
49529;BME280;35423;37.320;-121.762;2023-04-06T09:43:35;100535.11;;;16.41;26.44
49529;BME280;35423;37.320;-121.762;2023-04-06T09:46:05;100534.44;;;16.34;26.55
49529;BME280;35423;37.320;-121.762;2023-04-06T09:48:34;100533.44;;;16.28;26.68
49529;BME280;35423;37.320;-121.762;2023-04-06T09:51:02;100530.64;;;15.97;26.78
49529;BME280;35423;37.320;-121.762;2023-04-06T09:53:22;100528.46;;;15.90;26.83
49529;BME280;35423;37.320;-121.762;2023-04-06T09:55:49;100526.83;;;15.83;26.85
49529;BME280;35423;37.320;-121.762;2023-04-06T09:58:16;100527.39;;;16.06;26.82
49529;BME280;35423;37.320;-121.762;2023-04-06T10:00:47;100526.41;;;15.78;26.85
49529;BME280;35423;37.320;-121.762;2023-04-06T10:03:13;100528.10;;;15.73;26.86
49529;BME280;35423;37.320;-121.762;2023-04-06T10:05:37;100526.99;;;15.93;26.86
49529;BME280;35423;37.320;-121.762;2023-04-06T10:08:02;100531.76;;;15.72;26.82
49529;BME280;35423;37.320;-121.762;2023-04-06T10:10:25;100532.79;;;15.87;26.88
49529;BME280;35423;37.320;-121.762;2023-04-06T10:12:54;100536.51;;;16.09;26.94
49529;BME280;35423;37.320;-121.762;2023-04-06T10:15:18;100538.50;;;15.84;26.94
49529;BME280;35423;37.320;-121.762;2023-04-06T10:17:44;100542.55;;;16.06;26.91
49529;BME280;35423;37.320;-121.762;2023-04-06T10:20:21;100549.23;;;15.79;26.97
49529;BME280;35423;37.320;-121.762;2023-04-06T10:22:49;100547.80;;;15.97;27.06
49529;BME280;35423;37.320;-121.762;2023-04-06T10:25:11;100546.75;;;15.48;27.20
49529;BME280;35423;37.320;-121.762;2023-04-06T10:27:37;100550.30;;;15.88;27.24
49529;BME280;35423;37.320;-121.762;2023-04-06T10:30:05;100550.57;;;15.84;27.28
49529;BME280;35423;37.320;-121.762;2023-04-06T10:32:34;100551.10;;;15.35;27.47
49529;BME280;35423;37.320;-121.762;2023-04-06T10:37:22;100540.48;;;15.62;27.55
49529;BME280;35423;37.320;-121.762;2023-04-06T10:39:52;100537.60;;;15.58;27.60
49529;BME280;35423;37.320;-121.762;2023-04-06T10:42:14;100532.05;;;15.48;27.75
49529;BME280;35423;37.320;-121.762;2023-04-06T10:44:43;100526.00;;;15.29;27.93
49529;BME280;35423;37.320;-121.762;2023-04-06T10:47:05;100520.50;;;15.34;28.19
49529;BME280;35423;37.320;-121.762;2023-04-06T10:49:31;100514.79;;;15.40;28.34
49529;BME280;35423;37.320;-121.762;2023-04-06T10:51:57;100506.89;;;15.25;28.50
49529;BME280;35423;37.320;-121.762;2023-04-06T10:54:30;100500.81;;;15.14;28.55
49529;BME280;35423;37.320;-121.762;2023-04-06T10:56:55;100502.00;;;14.80;28.65
49529;BME280;35423;37.320;-121.762;2023-04-06T10:59:23;100500.12;;;14.94;28.69
49529;BME280;35423;37.320;-121.762;2023-04-06T11:01:49;100497.26;;;14.89;28.69
49529;BME280;35423;37.320;-121.762;2023-04-06T11:04:17;100493.97;;;14.84;28.69
49529;BME280;35423;37.320;-121.762;2023-04-06T11:06:39;100487.14;;;15.01;28.78
49529;BME280;35423;37.320;-121.762;2023-04-06T11:09:05;100479.47;;;14.66;28.84
49529;BME280;35423;37.320;-121.762;2023-04-06T11:11:39;100470.95;;;14.63;28.91
49529;BME280;35423;37.320;-121.762;2023-04-06T11:14:00;100463.67;;;14.89;28.92
49529;BME280;35423;37.320;-121.762;2023-04-06T11:16:29;100454.10;;;14.65;28.93
49529;BME280;35423;37.320;-121.762;2023-04-06T11:18:57;100451.40;;;14.60;29.00
49529;BME280;35423;37.320;-121.762;2023-04-06T11:23:48;100440.55;;;14.88;29.08
49529;BME280;35423;37.320;-121.762;2023-04-06T11:26:15;100434.18;;;14.89;29.10
49529;BME280;35423;37.320;-121.762;2023-04-06T11:28:42;100430.91;;;14.87;29.09
49529;BME280;35423;37.320;-121.762;2023-04-06T11:31:09;100429.53;;;15.09;29.13
49529;BME280;35423;37.320;-121.762;2023-04-06T11:33:36;100422.25;;;14.84;29.17
49529;BME280;35423;37.320;-121.762;2023-04-06T11:35:59;100418.58;;;14.78;29.29
49529;BME280;35423;37.320;-121.762;2023-04-06T11:38:24;100414.36;;;14.50;29.27
49529;BME280;35423;37.320;-121.762;2023-04-06T11:40:55;100417.39;;;14.50;29.25
49529;BME280;35423;37.320;-121.762;2023-04-06T11:43:26;100415.08;;;14.53;29.20
49529;BME280;35423;37.320;-121.762;2023-04-06T11:45:49;100414.76;;;14.83;29.17
49529;BME280;35423;37.320;-121.762;2023-04-06T11:48:19;100412.02;;;14.62;29.11
49529;BME280;35423;37.320;-121.762;2023-04-06T11:50:37;100411.75;;;14.85;29.13
49529;BME280;35423;37.320;-121.762;2023-04-06T11:53:02;100407.93;;;14.77;29.25
49529;BME280;35423;37.320;-121.762;2023-04-06T11:55:27;100403.59;;;14.73;29.30
49529;BME280;35423;37.320;-121.762;2023-04-06T11:57:55;100398.22;;;14.46;29.35
49529;BME280;35423;37.320;-121.762;2023-04-06T12:00:26;100398.85;;;14.47;29.32
49529;BME280;35423;37.320;-121.762;2023-04-06T12:02:57;100398.29;;;14.75;29.34
49529;BME280;35423;37.320;-121.762;2023-04-06T12:05:17;100401.73;;;14.49;29.29
49529;BME280;35423;37.320;-121.762;2023-04-06T12:07:50;100406.71;;;14.74;29.29
49529;BME280;35423;37.320;-121.762;2023-04-06T12:10:16;100409.37;;;14.72;29.30
49529;BME280;35423;37.320;-121.762;2023-04-06T12:12:42;100413.74;;;14.44;29.33
49529;BME280;35423;37.320;-121.762;2023-04-06T12:15:08;100413.25;;;14.69;29.32
49529;BME280;35423;37.320;-121.762;2023-04-06T12:17:32;100413.65;;;14.40;29.37
49529;BME280;35423;37.320;-121.762;2023-04-06T12:19:59;100411.54;;;14.38;29.41
49529;BME280;35423;37.320;-121.762;2023-04-06T12:22:24;100409.30;;;14.62;29.44
49529;BME280;35423;37.320;-121.762;2023-04-06T12:24:50;100413.37;;;14.62;29.44
49529;BME280;35423;37.320;-121.762;2023-04-06T12:27:16;100412.70;;;14.82;29.41